Time;durP1;ratioP1;P1;durP2;ratioP2;P2;SDS_P1;SDS_P2;PMS_P1;PMS_P2;Temp;Humidity;BMP_temperature;BMP_pressure;BME280_temperature;BME280_humidity;BME280_pressure;Samples;Min_cycle;Max_cycle;Signal;HPM_P1;HPM_P2
2022/01/12 00:02:18;;;;;;;25.80;14.13;;;;;;;;;;5030642;28;20099;-73
2022/01/12 00:04:44;;;;;;;28.90;14.23;;;;;;;;;;5030440;28;20025;-74
2022/01/12 00:07:11;;;;;;;32.50;14.48;;;;;;;;;;5031427;28;20030;-74
2022/01/12 00:09:37;;;;;;;29.77;14.38;;;;;;;;;;5031306;28;20030;-74
2022/01/12 00:12:04;;;;;;;29.92;14.60;;;;;;;;;;5033121;28;20018;-74
2022/01/12 00:14:31;;;;;;;27.85;13.95;;;;;;;;;;5030454;28;20039;-73
2022/01/12 00:16:59;;;;;;;24.98;14.52;;;;;;;;;;5030347;28;20024;-74
2022/01/12 00:19:29;;;;;;;29.13;14.75;;;;;;;;;;5030607;28;20017;-74
2022/01/12 00:21:56;;;;;;;32.83;14.95;;;;;;;;;;5062088;28;20022;-73
2022/01/12 00:24:26;;;;;;;24.33;13.30;;;;;;;;;;5032410;28;20028;-73
2022/01/12 00:35:07;;;;;;;36.40;15.75;;;;;;;;;;5030006;28;20105;-74
2022/01/12 00:37:33;;;;;;;40.15;19.08;;;;;;;;;;5029355;28;20036;-74
2022/01/12 00:40:00;;;;;;;34.00;15.70;;;;;;;;;;5029909;28;20063;-74
2022/01/12 00:42:28;;;;;;;25.27;12.23;;;;;;;;;;5032248;28;20026;-74
2022/01/12 00:44:55;;;;;;;20.48;10.85;;;;;;;;;;5030986;28;20037;-73
2022/01/12 00:47:21;;;;;;;20.65;11.00;;;;;;;;;;5030807;28;20510;-74
2022/01/12 00:49:47;;;;;;;22.45;11.27;;;;;;;;;;5029576;28;20046;-74
2022/01/12 00:52:14;;;;;;;27.15;13.38;;;;;;;;;;5029668;28;20026;-74
2022/01/12 00:54:40;;;;;;;35.33;15.80;;;;;;;;;;5014245;28;20028;-74
2022/01/12 00:57:07;;;;;;;30.23;14.88;;;;;;;;;;5032604;28;20390;-74
2022/01/12 00:59:34;;;;;;;30.75;14.88;;;;;;;;;;5029456;28;20376;-74
2022/01/12 01:02:00;;;;;;;23.73;11.75;;;;;;;;;;5029772;28;20022;-74
2022/01/12 01:04:26;;;;;;;28.33;13.13;;;;;;;;;;5029490;28;20018;-73
2022/01/12 01:06:54;;;;;;;27.50;14.45;;;;;;;;;;5029451;28;20044;-74
2022/01/12 01:09:22;;;;;;;20.92;10.80;;;;;;;;;;5030843;28;20402;-74
2022/01/12 01:11:49;;;;;;;29.45;13.77;;;;;;;;;;5030210;28;20036;-74
2022/01/12 01:14:26;;;;;;;22.50;12.13;;;;;;;;;;5029151;28;20406;-74
2022/01/12 01:17:16;;;;;;;29.70;14.70;;;;;;;;;;5028895;28;20032;-74
2022/01/12 01:27:56;;;;;;;25.40;12.60;;;;;;;;;;5015540;28;20030;-73
2022/01/12 01:30:22;;;;;;;20.38;10.73;;;;;;;;;;5031420;28;20033;-74
2022/01/12 01:32:49;;;;;;;18.70;11.07;;;;;;;;;;5028640;28;20453;-74
2022/01/12 01:35:16;;;;;;;17.25;9.15;;;;;;;;;;5028623;28;20021;-74
2022/01/12 01:37:42;;;;;;;16.77;8.82;;;;;;;;;;5028917;28;20414;-74
2022/01/12 01:40:09;;;;;;;18.98;10.02;;;;;;;;;;5028928;28;20032;-74
2022/01/12 01:42:56;;;;;;;18.92;10.80;;;;;;;;;;5030023;28;20038;-74
2022/01/12 01:53:40;;;;;;;21.38;10.32;;;;;;;;;;5064346;28;20036;-74
2022/01/12 01:56:07;;;;;;;18.33;9.93;;;;;;;;;;5058796;28;20025;-72
2022/01/12 01:58:33;;;;;;;17.75;9.23;;;;;;;;;;5054970;28;20032;-73
2022/01/12 02:01:00;;;;;;;32.03;13.60;;;;;;;;;;5052685;28;20029;-74
2022/01/12 02:03:29;;;;;;;19.73;9.65;;;;;;;;;;5051087;28;20032;-74
2022/01/12 02:05:55;;;;;;;39.60;14.35;;;;;;;;;;5054284;28;20066;-74
2022/01/12 02:08:22;;;;;;;29.10;11.98;;;;;;;;;;5054833;28;20545;-73
2022/01/12 02:10:54;;;;;;;22.60;9.98;;;;;;;;;;5054828;28;20078;-74
2022/01/12 02:13:20;;;;;;;16.40;8.45;;;;;;;;;;5054607;28;20051;-74
2022/01/12 02:15:47;;;;;;;15.15;8.55;;;;;;;;;;5051112;28;20520;-73
2022/01/12 02:18:39;;;;;;;18.65;10.27;;;;;;;;;;5052741;28;20502;-73
2022/01/12 02:40:27;;;;;;;19.42;9.77;;;;;;;;;;5032251;28;20025;-74
2022/01/12 02:53:42;;;;;;;19.55;9.40;;;;;;;;;;5013121;28;20038;-74
2022/01/12 02:56:15;;;;;;;16.08;9.00;;;;;;;;;;5012522;28;20041;-74
2022/01/12 02:58:43;;;;;;;17.88;8.07;;;;;;;;;;5012452;28;20026;-74
2022/01/12 03:03:46;;;;;;;17.42;8.70;;;;;;;;;;5012544;28;20046;-73
2022/01/12 03:06:17;;;;;;;17.05;9.73;;;;;;;;;;5012655;28;20018;-74
2022/01/12 03:08:44;;;;;;;18.08;9.55;;;;;;;;;;5017017;28;20133;-74
2022/01/12 03:11:12;;;;;;;28.42;13.00;;;;;;;;;;5008895;28;20026;-74
2022/01/12 03:13:38;;;;;;;20.15;9.38;;;;;;;;;;5009182;28;20033;-74
2022/01/12 03:16:26;;;;;;;16.95;8.85;;;;;;;;;;5011999;28;20084;-74
2022/01/12 03:18:53;;;;;;;16.23;8.38;;;;;;;;;;5011808;28;20034;-74
2022/01/12 03:21:21;;;;;;;18.50;9.60;;;;;;;;;;5012232;28;20036;-74
2022/01/12 03:23:48;;;;;;;22.35;9.68;;;;;;;;;;5031645;28;20339;-74
2022/01/12 03:26:15;;;;;;;17.20;9.23;;;;;;;;;;5030238;28;20033;-74
2022/01/12 03:28:42;;;;;;;15.88;8.57;;;;;;;;;;5031097;28;20520;-74
2022/01/12 03:31:15;;;;;;;19.15;9.77;;;;;;;;;;5030251;28;20510;-74
2022/01/12 03:38:54;;;;;;;19.27;10.48;;;;;;;;;;5032389;28;20030;-74
2022/01/12 03:41:21;;;;;;;20.70;10.65;;;;;;;;;;5031345;28;20026;-74
2022/01/12 03:43:48;;;;;;;17.27;9.10;;;;;;;;;;5031083;28;20024;-74
2022/01/12 03:46:16;;;;;;;16.40;9.00;;;;;;;;;;5030467;28;20101;-74
2022/01/12 03:48:42;;;;;;;19.15;9.10;;;;;;;;;;5030904;28;20041;-74
2022/01/12 03:51:09;;;;;;;17.50;9.15;;;;;;;;;;5032870;28;20497;-74
2022/01/12 03:53:35;;;;;;;17.77;10.02;;;;;;;;;;5029314;28;20035;-74
2022/01/12 03:56:02;;;;;;;18.77;10.02;;;;;;;;;;5030737;28;20032;-74
2022/01/12 03:58:28;;;;;;;19.40;9.52;;;;;;;;;;5030962;28;20036;-73
2022/01/12 04:00:54;;;;;;;19.80;10.57;;;;;;;;;;5031487;28;20378;-74
2022/01/12 04:03:21;;;;;;;16.65;9.63;;;;;;;;;;5032919;28;20508;-74
2022/01/12 04:08:32;;;;;;;18.17;9.73;;;;;;;;;;5030532;28;20380;-73
2022/01/12 04:11:00;;;;;;;17.92;9.70;;;;;;;;;;5030410;28;20032;-74
2022/01/12 04:13:28;;;;;;;19.27;9.50;;;;;;;;;;5030322;28;20013;-74
2022/01/12 04:15:56;;;;;;;16.02;8.73;;;;;;;;;;5030378;28;20021;-74
2022/01/12 04:18:23;;;;;;;17.33;8.93;;;;;;;;;;5031468;28;20483;-74
2022/01/12 04:20:50;;;;;;;21.35;9.80;;;;;;;;;;5031108;28;20452;-74
2022/01/12 04:23:21;;;;;;;20.00;9.45;;;;;;;;;;5030233;28;20044;-73
2022/01/12 04:25:49;;;;;;;22.35;10.07;;;;;;;;;;5030255;28;20025;-74
2022/01/12 04:28:17;;;;;;;17.15;9.38;;;;;;;;;;5029779;28;20037;-73
2022/01/12 04:30:43;;;;;;;17.98;9.02;;;;;;;;;;5029913;28;20490;-73
2022/01/12 04:33:10;;;;;;;16.42;9.38;;;;;;;;;;5033624;28;20025;-74
2022/01/12 04:35:44;;;;;;;15.30;9.23;;;;;;;;;;5030539;28;20022;-74
2022/01/12 04:38:10;;;;;;;17.60;8.85;;;;;;;;;;5029916;28;20033;-74
2022/01/12 04:40:36;;;;;;;16.17;8.77;;;;;;;;;;5031015;28;20017;-74
2022/01/12 04:43:03;;;;;;;19.10;9.40;;;;;;;;;;5028401;28;20041;-74
2022/01/12 04:48:08;;;;;;;18.60;9.38;;;;;;;;;;5031713;28;20024;-74
2022/01/12 04:50:37;;;;;;;15.88;8.95;;;;;;;;;;5029637;28;20030;-74
2022/01/12 04:53:04;;;;;;;19.65;9.93;;;;;;;;;;5029940;28;20017;-74
2022/01/12 04:55:31;;;;;;;15.38;8.73;;;;;;;;;;5029597;28;20025;-73
2022/01/12 04:57:57;;;;;;;17.23;9.10;;;;;;;;;;5029325;28;20490;-74
2022/01/12 05:00:25;;;;;;;17.45;8.52;;;;;;;;;;5032184;28;20026;-74
2022/01/12 05:13:42;;;;;;;17.60;9.18;;;;;;;;;;5029279;28;20066;-74
2022/01/12 05:16:11;;;;;;;15.40;9.32;;;;;;;;;;5029251;28;20448;-74
2022/01/12 05:18:38;;;;;;;22.00;9.25;;;;;;;;;;5030313;28;20014;-74
2022/01/12 05:21:05;;;;;;;17.95;9.55;;;;;;;;;;5032406;28;20090;-74
2022/01/12 05:23:31;;;;;;;19.05;10.07;;;;;;;;;;5028920;28;20028;-73
2022/01/12 05:25:58;;;;;;;17.50;9.15;;;;;;;;;;5029024;28;20025;-74
2022/01/12 05:28:25;;;;;;;15.30;9.30;;;;;;;;;;5029277;28;20036;-74
2022/01/12 05:30:52;;;;;;;18.17;9.73;;;;;;;;;;5029149;28;20026;-73
2022/01/12 05:33:19;;;;;;;16.00;8.85;;;;;;;;;;5031265;28;20025;-74
2022/01/12 05:35:46;;;;;;;18.38;9.35;;;;;;;;;;5029990;28;20040;-74
2022/01/12 05:38:14;;;;;;;15.45;8.80;;;;;;;;;;5029162;28;20033;-74
2022/01/12 05:40:42;;;;;;;16.73;10.02;;;;;;;;;;5028532;28;20017;-74
2022/01/12 05:43:08;;;;;;;25.45;12.07;;;;;;;;;;5028877;28;20401;-74
2022/01/12 05:45:38;;;;;;;38.22;18.15;;;;;;;;;;5029879;28;20056;-74
2022/01/12 05:50:34;;;;;;;23.27;12.48;;;;;;;;;;5027964;28;20034;-74
2022/01/12 05:53:00;;;;;;;19.70;10.77;;;;;;;;;;5028635;28;20009;-74
2022/01/12 05:55:26;;;;;;;18.20;10.18;;;;;;;;;;5027979;28;20029;-74
2022/01/12 05:57:53;;;;;;;18.27;9.95;;;;;;;;;;5030159;28;20017;-73
2022/01/12 06:00:20;;;;;;;15.65;9.80;;;;;;;;;;5030867;28;20025;-74
2022/01/12 06:02:47;;;;;;;17.80;10.27;;;;;;;;;;5029543;28;20025;-74
2022/01/12 06:05:14;;;;;;;17.00;9.80;;;;;;;;;;5028528;28;20405;-74
2022/01/12 06:07:43;;;;;;;20.17;10.13;;;;;;;;;;5028903;28;20013;-74
2022/01/12 06:10:10;;;;;;;15.20;9.43;;;;;;;;;;5028168;28;20036;-74
2022/01/12 06:12:36;;;;;;;18.83;10.02;;;;;;;;;;5029504;28;20022;-73
2022/01/12 06:15:03;;;;;;;17.83;10.63;;;;;;;;;;5031068;28;20025;-73
2022/01/12 06:17:29;;;;;;;26.25;13.45;;;;;;;;;;5028463;28;20028;-74
2022/01/12 06:19:56;;;;;;;19.05;10.68;;;;;;;;;;5028559;28;20052;-74
2022/01/12 06:22:24;;;;;;;17.95;10.35;;;;;;;;;;5028473;28;20401;-74
2022/01/12 06:24:54;;;;;;;16.40;9.95;;;;;;;;;;5028096;28;20529;-73
2022/01/12 06:27:22;;;;;;;20.90;10.50;;;;;;;;;;5030397;28;20034;-74
2022/01/12 06:30:04;;;;;;;21.60;10.85;;;;;;;;;;5028165;28;20045;-74
2022/01/12 06:32:31;;;;;;;15.77;9.75;;;;;;;;;;5028682;28;20017;-74
2022/01/12 06:34:57;;;;;;;17.63;10.55;;;;;;;;;;5028297;28;20021;-74
2022/01/12 06:37:24;;;;;;;19.95;10.77;;;;;;;;;;5029363;28;20478;-74
2022/01/12 06:39:51;;;;;;;19.58;13.25;;;;;;;;;;5028037;28;20026;-74
2022/01/12 06:42:17;;;;;;;20.33;11.02;;;;;;;;;;5031017;28;20028;-73
2022/01/12 06:44:43;;;;;;;26.52;10.85;;;;;;;;;;5029201;28;20040;-74
2022/01/12 06:47:11;;;;;;;18.10;10.75;;;;;;;;;;5027965;28;20048;-74
2022/01/12 06:49:37;;;;;;;17.75;10.77;;;;;;;;;;5028306;28;20033;-74
2022/01/12 06:52:03;;;;;;;14.57;9.15;;;;;;;;;;5028315;28;20489;-74
2022/01/12 06:54:30;;;;;;;16.40;9.00;;;;;;;;;;5028475;28;20024;-74
2022/01/12 06:56:56;;;;;;;14.85;8.60;;;;;;;;;;5030438;28;20030;-74
2022/01/12 06:59:23;;;;;;;15.25;8.98;;;;;;;;;;5027948;28;20021;-74
2022/01/12 07:01:49;;;;;;;14.38;7.70;;;;;;;;;;5028158;28;20033;-74
2022/01/12 07:04:15;;;;;;;13.38;8.40;;;;;;;;;;5030599;28;20026;-73
2022/01/12 07:06:42;;;;;;;14.63;8.02;;;;;;;;;;5029571;28;20029;-74
2022/01/12 07:09:08;;;;;;;13.30;8.00;;;;;;;;;;5034405;28;20498;-74
2022/01/12 07:11:34;;;;;;;14.38;9.43;;;;;;;;;;5040508;28;20524;-74
2022/01/12 07:14:01;;;;;;;28.90;17.20;;;;;;;;;;5034199;28;20025;-74
2022/01/12 07:16:27;;;;;;;29.45;17.80;;;;;;;;;;5032604;28;20039;-74
2022/01/12 07:18:58;;;;;;;20.90;13.05;;;;;;;;;;5030176;28;20081;-74
2022/01/12 07:21:25;;;;;;;16.75;8.65;;;;;;;;;;5033759;28;20028;-74
2022/01/12 07:23:54;;;;;;;15.38;9.50;;;;;;;;;;5031905;28;20029;-74
2022/01/12 07:26:24;;;;;;;24.88;17.00;;;;;;;;;;5033627;28;20043;-73
2022/01/12 07:28:50;;;;;;;21.42;12.00;;;;;;;;;;5030993;28;20075;-74
2022/01/12 07:31:17;;;;;;;19.67;11.68;;;;;;;;;;5031776;28;20110;-74
2022/01/12 07:33:43;;;;;;;12.80;8.25;;;;;;;;;;5030603;28;20492;-72
2022/01/12 07:36:09;;;;;;;13.75;8.05;;;;;;;;;;5033735;28;20025;-73
2022/01/12 07:42:36;;;;;;;14.35;8.80;;;;;;;;;;5086518;27;20123;-73
2022/01/12 07:45:03;;;;;;;13.00;7.57;;;;;;;;;;5067983;28;20017;-73
2022/01/12 07:47:30;;;;;;;13.20;8.10;;;;;;;;;;5049347;28;20029;-72
2022/01/12 07:49:57;;;;;;;14.13;8.48;;;;;;;;;;5067634;28;20474;-73
2022/01/12 07:52:23;;;;;;;15.93;8.60;;;;;;;;;;5049944;28;20016;-73
2022/01/12 07:54:50;;;;;;;15.48;8.52;;;;;;;;;;5067660;28;20028;-73
2022/01/12 07:57:16;;;;;;;12.73;7.68;;;;;;;;;;5068156;28;20395;-73
2022/01/12 07:59:43;;;;;;;13.38;7.80;;;;;;;;;;5068566;28;20032;-73
2022/01/12 08:02:09;;;;;;;16.02;8.88;;;;;;;;;;5075518;28;20041;-73
2022/01/12 08:04:36;;;;;;;17.63;9.15;;;;;;;;;;5058665;28;20033;-74
2022/01/12 08:07:03;;;;;;;16.42;9.35;;;;;;;;;;5067296;28;20025;-73
2022/01/12 08:09:30;;;;;;;15.75;8.98;;;;;;;;;;5068460;28;20082;-73
2022/01/12 08:11:56;;;;;;;17.55;9.63;;;;;;;;;;5067617;28;20031;-74
2022/01/12 08:14:23;;;;;;;26.67;14.55;;;;;;;;;;5057990;28;20016;-74
2022/01/12 08:17:18;;;;;;;16.77;10.65;;;;;;;;;;5056117;28;20481;-73
2022/01/12 08:20:07;;;;;;;20.17;11.80;;;;;;;;;;5067105;28;20448;-74
2022/01/12 08:22:56;;;;;;;26.45;15.05;;;;;;;;;;5066736;28;20132;-73
2022/01/12 08:25:22;;;;;;;19.52;10.75;;;;;;;;;;5067054;28;20016;-73
2022/01/12 08:28:11;;;;;;;18.15;10.30;;;;;;;;;;4989609;28;20052;-74
2022/01/12 08:30:56;;;;;;;17.38;10.38;;;;;;;;;;5003538;28;20117;-73
2022/01/12 08:33:22;;;;;;;18.60;10.32;;;;;;;;;;5002549;28;20026;-74
2022/01/12 08:35:49;;;;;;;23.40;13.82;;;;;;;;;;5000323;28;20092;-73
2022/01/12 08:38:15;;;;;;;20.92;11.98;;;;;;;;;;5000507;28;20040;-73
2022/01/12 08:40:42;;;;;;;17.55;10.60;;;;;;;;;;4999677;28;20446;-73
2022/01/12 08:43:08;;;;;;;17.38;10.30;;;;;;;;;;5001717;28;20023;-73
2022/01/12 08:45:35;;;;;;;17.83;10.85;;;;;;;;;;5004477;28;20050;-73
2022/01/12 08:48:01;;;;;;;20.35;11.63;;;;;;;;;;5000666;28;20400;-73
2022/01/12 08:50:28;;;;;;;27.85;14.95;;;;;;;;;;5004417;28;20030;-74
2022/01/12 08:52:55;;;;;;;24.90;12.00;;;;;;;;;;4993237;28;20053;-73
2022/01/12 08:55:22;;;;;;;18.85;11.70;;;;;;;;;;4987150;28;20029;-73
2022/01/12 08:57:50;;;;;;;20.17;10.68;;;;;;;;;;4990986;28;20038;-74
2022/01/12 09:00:17;;;;;;;58.28;31.00;;;;;;;;;;4988246;28;20495;-73
2022/01/12 09:02:44;;;;;;;17.60;11.52;;;;;;;;;;4990094;28;20034;-73
2022/01/12 09:05:14;;;;;;;16.38;11.13;;;;;;;;;;5017966;28;20047;-73
2022/01/12 09:07:41;;;;;;;15.93;9.70;;;;;;;;;;5052323;28;20021;-73
2022/01/12 09:10:08;;;;;;;18.05;11.13;;;;;;;;;;5052472;28;20501;-73
2022/01/12 09:12:36;;;;;;;13.50;9.95;;;;;;;;;;5052809;28;20027;-74
2022/01/12 09:15:04;;;;;;;15.45;9.40;;;;;;;;;;5064314;28;20497;-73
2022/01/12 09:17:31;;;;;;;14.63;10.18;;;;;;;;;;5052794;28;20377;-73
2022/01/12 09:19:57;;;;;;;15.40;10.35;;;;;;;;;;5052161;28;20382;-73
2022/01/12 09:22:24;;;;;;;13.55;9.90;;;;;;;;;;5052655;28;20051;-73
2022/01/12 09:24:50;;;;;;;14.20;10.27;;;;;;;;;;5052262;28;20029;-74
2022/01/12 09:27:18;;;;;;;15.10;10.93;;;;;;;;;;5051559;28;20508;-74
2022/01/12 09:29:45;;;;;;;15.18;10.60;;;;;;;;;;5051955;28;20511;-74
2022/01/12 09:32:11;;;;;;;15.98;10.75;;;;;;;;;;5050187;28;20031;-73
2022/01/12 09:34:38;;;;;;;15.35;10.52;;;;;;;;;;5051514;28;20489;-74
2022/01/12 09:37:04;;;;;;;12.00;9.40;;;;;;;;;;5032713;28;20032;-73
2022/01/12 09:39:30;;;;;;;12.52;9.82;;;;;;;;;;5052105;28;20443;-74
2022/01/12 09:41:57;;;;;;;15.45;10.43;;;;;;;;;;5052623;28;20433;-74
2022/01/12 09:44:34;;;;;;;14.38;10.73;;;;;;;;;;5055212;28;20045;-74
2022/01/12 09:47:01;;;;;;;18.15;10.00;;;;;;;;;;5052087;28;20500;-74
2022/01/12 09:49:28;;;;;;;12.75;10.15;;;;;;;;;;5034401;28;20025;-74
2022/01/12 09:51:55;;;;;;;14.73;10.13;;;;;;;;;;5034326;28;20029;-74
2022/01/12 09:54:22;;;;;;;13.23;10.10;;;;;;;;;;5051771;28;20074;-74
2022/01/12 09:56:48;;;;;;;12.30;10.35;;;;;;;;;;5052706;28;20033;-74
2022/01/12 09:59:15;;;;;;;13.68;10.68;;;;;;;;;;5051791;28;20067;-74
2022/01/12 10:01:45;;;;;;;19.90;10.00;;;;;;;;;;5051872;28;20025;-74
2022/01/12 10:04:16;;;;;;;12.10;8.88;;;;;;;;;;5052376;28;20027;-74
2022/01/12 10:06:45;;;;;;;13.77;9.23;;;;;;;;;;5035755;28;20486;-74
2022/01/12 10:09:13;;;;;;;11.07;8.40;;;;;;;;;;5034031;28;20032;-74
2022/01/12 10:11:40;;;;;;;13.77;10.00;;;;;;;;;;5052085;28;20029;-78
2022/01/12 10:14:07;;;;;;;13.23;9.50;;;;;;;;;;5050978;28;20013;-72
2022/01/12 10:16:34;;;;;;;13.30;9.30;;;;;;;;;;5050825;28;20081;-71
2022/01/12 10:19:01;;;;;;;11.32;8.80;;;;;;;;;;5051035;28;20032;-72
2022/01/12 10:21:32;;;;;;;13.43;9.95;;;;;;;;;;5048392;28;20604;-72
2022/01/12 10:24:07;;;;;;;14.95;10.93;;;;;;;;;;5047741;28;20033;-75
2022/01/12 10:26:37;;;;;;;14.38;9.88;;;;;;;;;;5050847;28;20029;-74
2022/01/12 10:29:04;;;;;;;15.90;10.63;;;;;;;;;;5049089;28;20025;-73
2022/01/12 10:31:41;;;;;;;15.10;9.50;;;;;;;;;;5026928;28;20040;-74
2022/01/12 10:34:08;;;;;;;13.05;9.55;;;;;;;;;;5050278;28;20546;-73
2022/01/12 10:36:41;;;;;;;13.98;8.95;;;;;;;;;;5051264;28;20028;-74
2022/01/12 10:39:09;;;;;;;14.95;9.55;;;;;;;;;;5049898;28;20486;-74
2022/01/12 10:41:36;;;;;;;12.27;9.07;;;;;;;;;;5050459;28;20068;-74
2022/01/12 10:44:03;;;;;;;12.55;9.95;;;;;;;;;;5051538;28;20021;-73
2022/01/12 10:46:29;;;;;;;15.35;9.93;;;;;;;;;;5066227;28;20448;-74
2022/01/12 10:48:57;;;;;;;12.13;9.15;;;;;;;;;;5051015;28;20481;-72
2022/01/12 10:51:25;;;;;;;14.98;10.38;;;;;;;;;;5033130;28;20043;-72
2022/01/12 10:53:53;;;;;;;15.00;10.90;;;;;;;;;;5050363;28;20039;-72
2022/01/12 10:56:20;;;;;;;15.70;9.50;;;;;;;;;;5050171;28;20035;-72
2022/01/12 10:58:48;;;;;;;12.30;9.43;;;;;;;;;;5051178;28;20031;-72
2022/01/12 11:01:15;;;;;;;15.10;9.98;;;;;;;;;;5050692;28;20024;-73
2022/01/12 11:03:42;;;;;;;13.00;9.40;;;;;;;;;;5047837;28;20028;-71
2022/01/12 11:06:09;;;;;;;10.00;7.28;;;;;;;;;;5051405;28;20080;-73
2022/01/12 11:08:37;;;;;;;14.30;8.50;;;;;;;;;;5055348;28;20095;-72
2022/01/12 11:11:04;;;;;;;8.75;6.82;;;;;;;;;;5046260;28;20037;-72
2022/01/12 11:13:31;;;;;;;10.35;7.13;;;;;;;;;;5049957;28;20028;-72
2022/01/12 11:15:59;;;;;;;11.15;7.40;;;;;;;;;;5050386;28;20031;-72
2022/01/12 11:18:34;;;;;;;12.52;8.18;;;;;;;;;;5050470;28;20390;-72
2022/01/12 11:21:04;;;;;;;9.60;7.00;;;;;;;;;;5050018;28;20401;-72
2022/01/12 11:23:35;;;;;;;8.77;6.47;;;;;;;;;;5048655;28;20405;-72
2022/01/12 11:26:11;;;;;;;7.60;5.93;;;;;;;;;;5050527;28;20033;-72
2022/01/12 11:28:38;;;;;;;9.15;5.50;;;;;;;;;;5050245;28;20063;-72
2022/01/12 11:31:05;;;;;;;8.52;5.70;;;;;;;;;;5050805;28;20381;-72
2022/01/12 11:33:31;;;;;;;8.15;4.97;;;;;;;;;;5032760;28;20044;-72
2022/01/12 11:36:22;;;;;;;6.47;4.97;;;;;;;;;;5051247;28;20070;-72
2022/01/12 11:39:12;;;;;;;21.63;14.93;;;;;;;;;;5038375;28;20521;-83
2022/01/12 11:41:40;;;;;;;6.82;5.40;;;;;;;;;;5038694;28;20298;-72
2022/01/12 11:44:08;;;;;;;9.43;7.38;;;;;;;;;;5050034;28;20020;-73
2022/01/12 11:46:47;;;;;;;9.38;5.97;;;;;;;;;;5050767;28;20071;-72
2022/01/12 11:49:24;;;;;;;8.32;5.82;;;;;;;;;;5050614;28;20019;-72
2022/01/12 11:51:51;;;;;;;5.82;4.53;;;;;;;;;;5035820;28;20032;-72
2022/01/12 11:54:18;;;;;;;8.27;4.82;;;;;;;;;;5050739;28;20070;-72
2022/01/12 11:57:02;;;;;;;7.22;4.53;;;;;;;;;;4997283;28;20049;-72
2022/01/12 11:59:29;;;;;;;7.38;5.63;;;;;;;;;;4972992;28;20043;-72
2022/01/12 12:02:12;;;;;;;6.50;4.78;;;;;;;;;;4972159;28;20029;-72
2022/01/12 12:04:39;;;;;;;4.78;3.58;;;;;;;;;;4971608;28;20488;-72
2022/01/12 12:07:06;;;;;;;5.07;3.83;;;;;;;;;;4971728;28;20023;-72
2022/01/12 12:09:42;;;;;;;6.53;4.47;;;;;;;;;;4971180;28;20030;-71
2022/01/12 12:12:17;;;;;;;5.15;4.32;;;;;;;;;;4971534;28;20034;-72
2022/01/12 12:14:44;;;;;;;6.88;4.60;;;;;;;;;;4971736;28;20573;-72
2022/01/12 12:17:11;;;;;;;5.60;4.28;;;;;;;;;;4971675;28;20035;-72
2022/01/12 12:19:37;;;;;;;6.45;4.28;;;;;;;;;;4971769;28;20035;-72
2022/01/12 12:22:08;;;;;;;6.40;4.75;;;;;;;;;;4971582;28;20380;-72
2022/01/12 12:24:34;;;;;;;5.47;4.30;;;;;;;;;;4971625;28;20039;-72
2022/01/12 12:27:02;;;;;;;5.88;3.58;;;;;;;;;;4971823;28;20374;-72
2022/01/12 12:29:29;;;;;;;5.28;3.78;;;;;;;;;;4975046;28;20521;-72
2022/01/12 12:31:56;;;;;;;5.05;3.80;;;;;;;;;;4975084;28;20399;-72
2022/01/12 12:34:26;;;;;;;4.95;3.50;;;;;;;;;;4975088;28;20031;-72
2022/01/12 12:37:12;;;;;;;5.00;3.80;;;;;;;;;;4974772;28;20033;-72
2022/01/12 12:39:39;;;;;;;6.40;3.75;;;;;;;;;;4974994;28;20030;-72
2022/01/12 12:42:14;;;;;;;5.30;3.70;;;;;;;;;;4974889;28;20047;-72
2022/01/12 12:44:41;;;;;;;6.18;3.50;;;;;;;;;;4975093;28;20326;-72
2022/01/12 12:47:08;;;;;;;4.50;3.40;;;;;;;;;;4974876;28;20033;-72
2022/01/12 12:49:44;;;;;;;4.35;3.22;;;;;;;;;;4974817;28;20031;-71
2022/01/12 12:52:10;;;;;;;3.42;2.75;;;;;;;;;;4974750;28;20516;-72
2022/01/12 12:54:41;;;;;;;3.38;3.05;;;;;;;;;;4974626;28;20483;-72
2022/01/12 12:57:09;;;;;;;3.45;3.10;;;;;;;;;;4975166;28;20512;-72
2022/01/12 12:59:35;;;;;;;5.20;3.83;;;;;;;;;;4974650;28;20385;-72
2022/01/12 13:02:09;;;;;;;6.82;3.80;;;;;;;;;;4974586;28;20533;-72
2022/01/12 13:04:36;;;;;;;5.80;3.45;;;;;;;;;;4965859;28;20566;-71
2022/01/12 13:07:11;;;;;;;5.60;4.20;;;;;;;;;;4974717;28;20484;-72
2022/01/12 13:09:37;;;;;;;4.45;3.55;;;;;;;;;;4974305;28;20023;-71
2022/01/12 13:12:04;;;;;;;4.18;3.70;;;;;;;;;;4974742;28;20039;-72
2022/01/12 13:14:40;;;;;;;3.95;3.50;;;;;;;;;;4974294;28;20019;-72
2022/01/12 13:17:07;;;;;;;3.60;3.08;;;;;;;;;;4973144;28;20023;-72
2022/01/12 13:22:33;;;;;;;5.05;3.00;;;;;;;;;;4971590;28;20110;-72
2022/01/12 13:25:00;;;;;;;4.07;2.60;;;;;;;;;;4956495;28;20033;-72
2022/01/12 13:27:28;;;;;;;5.35;2.90;;;;;;;;;;4973309;28;20065;-73
2022/01/12 13:29:55;;;;;;;2.88;2.33;;;;;;;;;;4971234;28;20018;-72
2022/01/12 13:32:21;;;;;;;3.53;2.78;;;;;;;;;;4971855;28;20038;-72
2022/01/12 13:34:58;;;;;;;2.53;2.20;;;;;;;;;;4972734;28;20023;-72
2022/01/12 13:37:24;;;;;;;3.42;2.60;;;;;;;;;;4972707;28;20447;-72
2022/01/12 13:40:08;;;;;;;3.58;2.70;;;;;;;;;;4972495;28;20018;-72
2022/01/12 13:42:47;;;;;;;2.90;2.35;;;;;;;;;;4971202;28;20047;-72
2022/01/12 13:45:16;;;;;;;2.92;2.42;;;;;;;;;;4973128;28;20027;-72
2022/01/12 13:47:48;;;;;;;2.80;2.20;;;;;;;;;;4973142;28;20492;-73
2022/01/12 13:50:17;;;;;;;3.15;2.63;;;;;;;;;;4973266;28;20015;-72
2022/01/12 13:52:54;;;;;;;3.75;2.60;;;;;;;;;;4973405;28;20382;-72
2022/01/12 13:55:20;;;;;;;6.15;2.70;;;;;;;;;;4973171;28;20025;-72
2022/01/12 13:57:46;;;;;;;5.40;3.00;;;;;;;;;;4973719;28;20022;-72
2022/01/12 14:00:20;;;;;;;5.82;3.15;;;;;;;;;;4973986;28;20112;-72
2022/01/12 14:02:46;;;;;;;2.97;2.65;;;;;;;;;;4978923;28;20037;-72
2022/01/12 14:05:18;;;;;;;2.80;2.17;;;;;;;;;;4976282;28;20031;-73
2022/01/12 14:07:59;;;;;;;3.10;2.47;;;;;;;;;;4965879;28;20038;-72
2022/01/12 14:10:26;;;;;;;3.17;2.05;;;;;;;;;;4973265;28;20912;-72
2022/01/12 14:12:53;;;;;;;218.60;130.85;;;;;;;;;;4955958;28;20479;-72
2022/01/12 14:15:26;;;;;;;12.50;7.15;;;;;;;;;;4971736;28;20399;-72
2022/01/12 14:17:53;;;;;;;14.20;7.85;;;;;;;;;;4973483;28;20041;-72
2022/01/12 14:20:21;;;;;;;3.97;3.00;;;;;;;;;;4972863;28;20021;-71
2022/01/12 14:22:49;;;;;;;2.88;2.00;;;;;;;;;;4986708;28;20033;-72
2022/01/12 14:25:17;;;;;;;8.80;6.07;;;;;;;;;;4955415;28;20018;-71
2022/01/12 14:27:44;;;;;;;9.38;6.22;;;;;;;;;;4957622;28;20039;-72
2022/01/12 14:30:11;;;;;;;3.50;2.67;;;;;;;;;;4972963;28;20025;-72
2022/01/12 14:32:38;;;;;;;4.72;2.63;;;;;;;;;;4970153;28;20049;-71
2022/01/12 14:35:06;;;;;;;8.05;4.68;;;;;;;;;;4972732;28;20027;-72
2022/01/12 14:37:32;;;;;;;6.35;4.45;;;;;;;;;;4972824;28;20038;-72
2022/01/12 14:39:59;;;;;;;4.38;3.00;;;;;;;;;;4972879;28;20057;-72
2022/01/12 14:42:25;;;;;;;4.03;3.10;;;;;;;;;;4972780;28;20412;-72
2022/01/12 14:44:52;;;;;;;5.40;3.38;;;;;;;;;;4972734;28;20037;-72
2022/01/12 14:47:18;;;;;;;4.47;3.38;;;;;;;;;;4971357;28;20019;-72
2022/01/12 14:49:44;;;;;;;4.65;2.80;;;;;;;;;;4969969;28;20033;-72
2022/01/12 14:52:11;;;;;;;3.03;2.72;;;;;;;;;;4970510;28;20033;-72
2022/01/12 14:54:37;;;;;;;4.13;3.03;;;;;;;;;;4972259;28;20023;-72
2022/01/12 14:57:03;;;;;;;5.32;2.90;;;;;;;;;;4973061;28;20027;-71
2022/01/12 14:59:30;;;;;;;4.82;3.35;;;;;;;;;;4972471;28;20025;-71
2022/01/12 15:01:56;;;;;;;4.30;3.03;;;;;;;;;;4971800;28;20037;-71
2022/01/12 15:04:27;;;;;;;5.93;3.53;;;;;;;;;;4981592;28;20033;-72
2022/01/12 15:06:54;;;;;;;6.82;3.97;;;;;;;;;;4972145;28;20400;-72
2022/01/12 15:09:20;;;;;;;9.30;6.38;;;;;;;;;;4972477;28;20034;-69
2022/01/12 15:11:49;;;;;;;7.03;4.75;;;;;;;;;;4970870;28;20045;-73
2022/01/12 15:16:58;;;;;;;39.05;21.48;;;;;;;;;;4972138;28;20030;-72
2022/01/12 15:19:24;;;;;;;10.98;6.38;;;;;;;;;;4972448;28;20018;-72
2022/01/12 15:21:50;;;;;;;5.35;4.03;;;;;;;;;;4972288;28;20070;-72
2022/01/12 15:24:17;;;;;;;10.70;6.75;;;;;;;;;;4973048;28;20039;-72
2022/01/12 15:26:43;;;;;;;7.05;4.50;;;;;;;;;;4971627;28;20447;-72
2022/01/12 15:29:09;;;;;;;5.90;4.53;;;;;;;;;;4972507;28;20026;-72
2022/01/12 15:31:35;;;;;;;6.50;4.63;;;;;;;;;;4972131;28;20093;-72
2022/01/12 15:34:02;;;;;;;6.70;5.05;;;;;;;;;;4972245;28;20435;-72
2022/01/12 15:36:28;;;;;;;7.68;5.53;;;;;;;;;;4972204;28;20040;-71
2022/01/12 15:38:55;;;;;;;8.38;5.93;;;;;;;;;;4987809;28;20022;-74
2022/01/12 15:41:21;;;;;;;5.65;4.85;;;;;;;;;;4972342;28;20045;-74
2022/01/12 15:43:48;;;;;;;15.95;8.57;;;;;;;;;;4971940;28;20030;-73
2022/01/12 15:46:15;;;;;;;6.55;5.35;;;;;;;;;;4972347;28;20030;-74
2022/01/12 15:48:41;;;;;;;10.85;6.05;;;;;;;;;;4972505;28;20023;-74
2022/01/12 15:51:08;;;;;;;10.77;6.80;;;;;;;;;;4972738;28;20034;-74
2022/01/12 15:53:34;;;;;;;8.90;6.40;;;;;;;;;;4972016;28;20061;-74
2022/01/12 15:56:00;;;;;;;10.30;6.70;;;;;;;;;;4972233;28;20030;-74
2022/01/12 15:58:27;;;;;;;11.75;6.72;;;;;;;;;;4972185;28;20030;-73
2022/01/12 16:00:53;;;;;;;10.02;6.45;;;;;;;;;;4972148;28;20029;-73
2022/01/12 16:03:20;;;;;;;9.95;6.70;;;;;;;;;;4974255;28;20022;-74
2022/01/12 16:05:46;;;;;;;12.35;6.95;;;;;;;;;;4976138;28;20492;-74
2022/01/12 16:08:12;;;;;;;11.18;8.15;;;;;;;;;;4975798;28;20041;-74